Time;durP1;ratioP1;P1;durP2;ratioP2;P2;SDS_P1;SDS_P2;PMS_P1;PMS_P2;Temp;Humidity;BMP_temperature;BMP_pressure;BME280_temperature;BME280_humidity;BME280_pressure;Samples;Min_cycle;Max_cycle;Signal;HPM_P1;HPM_P2
2024/02/03 00:01:37;;;;;;;6.10;2.20;;;;;;;7.88;100.00;97436.59;5079030;28;20207;-67
2024/02/03 00:04:03;;;;;;;2.90;1.87;;;;;;;7.61;100.00;97435.50;5080204;28;20203;-67
2024/02/03 00:06:30;;;;;;;4.10;2.37;;;;;;;7.55;100.00;97440.44;5079288;28;20386;-67
2024/02/03 00:08:56;;;;;;;5.33;2.23;;;;;;;7.49;100.00;97444.38;5078536;28;20641;-67
2024/02/03 00:11:23;;;;;;;9.13;3.07;;;;;;;7.36;100.00;97446.38;5078575;28;20210;-67
2024/02/03 00:13:50;;;;;;;4.13;2.03;;;;;;;7.44;100.00;97448.38;5078579;28;20200;-67
2024/02/03 00:16:17;;;;;;;3.13;1.93;;;;;;;7.52;100.00;97451.16;5078909;28;20290;-67
2024/02/03 00:18:44;;;;;;;4.23;2.33;;;;;;;7.59;100.00;97445.28;5078956;28;20756;-67
2024/02/03 00:21:11;;;;;;;4.60;2.30;;;;;;;7.53;100.00;97447.59;5078167;28;20791;-67
2024/02/03 00:23:37;;;;;;;4.47;2.23;;;;;;;7.43;100.00;97455.41;5079569;28;20196;-68
2024/02/03 00:26:04;;;;;;;3.07;1.90;;;;;;;7.56;100.00;97457.81;5079039;28;20206;-67
2024/02/03 00:28:31;;;;;;;2.90;1.90;;;;;;;7.37;100.00;97449.84;5077516;28;20268;-67
2024/02/03 00:30:57;;;;;;;4.03;1.90;;;;;;;7.42;100.00;97445.88;5077796;28;20366;-66
2024/02/03 00:33:24;;;;;;;3.90;1.93;;;;;;;7.55;100.00;97458.81;5079424;28;20200;-67
2024/02/03 00:35:51;;;;;;;2.87;1.70;;;;;;;7.60;100.00;97451.34;5078225;28;20233;-67
2024/02/03 00:38:18;;;;;;;2.77;1.47;;;;;;;7.48;100.00;97453.22;5077472;28;20210;-67
2024/02/03 00:40:44;;;;;;;3.73;1.90;;;;;;;7.49;100.00;97449.63;5077985;28;20215;-67
2024/02/03 00:43:14;;;;;;;4.33;1.53;;;;;;;7.42;100.00;97448.50;5078004;28;20207;-67
2024/02/03 00:45:41;;;;;;;4.30;1.83;;;;;;;7.38;100.00;97444.47;5078479;28;20207;-67
2024/02/03 00:48:08;;;;;;;3.07;1.63;;;;;;;7.46;100.00;97443.84;5077641;28;20212;-67
2024/02/03 00:50:35;;;;;;;1.67;1.13;;;;;;;7.42;100.00;97448.50;5077918;28;20220;-67
2024/02/03 00:53:03;;;;;;;4.93;1.93;;;;;;;7.48;100.00;97440.09;5078340;28;20210;-67
2024/02/03 00:55:29;;;;;;;1.83;1.43;;;;;;;7.33;100.00;97445.81;5078008;28;20200;-67
2024/02/03 00:57:55;;;;;;;13.10;1.70;;;;;;;7.37;100.00;97442.81;5078142;28;20206;-67
2024/02/03 01:00:24;;;;;;;3.60;1.80;;;;;;;7.39;100.00;97438.25;5077219;28;20220;-67
2024/02/03 01:02:51;;;;;;;3.57;1.33;;;;;;;7.44;100.00;97443.94;5078657;28;20200;-67
2024/02/03 01:05:17;;;;;;;2.83;1.73;;;;;;;7.48;100.00;97447.97;5078218;28;20206;-67
2024/02/03 01:07:44;;;;;;;2.53;1.77;;;;;;;7.51;100.00;97449.50;5077398;28;20215;-67
2024/02/03 01:10:12;;;;;;;3.13;1.90;;;;;;;7.56;100.00;97450.81;5076829;28;20230;-67
2024/02/03 01:12:38;;;;;;;2.67;1.63;;;;;;;7.36;100.00;97443.75;5076873;28;20598;-67
2024/02/03 01:15:05;;;;;;;5.10;1.90;;;;;;;7.40;100.00;97445.16;5077504;28;20196;-67
2024/02/03 01:17:32;;;;;;;3.80;1.70;;;;;;;7.33;100.00;97448.41;5077326;28;20200;-67
2024/02/03 01:19:58;;;;;;;2.63;1.60;;;;;;;7.35;100.00;97441.28;5077354;28;20249;-67
2024/02/03 01:22:25;;;;;;;3.30;1.60;;;;;;;7.25;100.00;97434.31;5077668;28;20200;-67
2024/02/03 01:24:51;;;;;;;3.47;1.60;;;;;;;7.28;100.00;97430.47;5077305;28;21090;-67
2024/02/03 01:27:19;;;;;;;3.87;1.77;;;;;;;7.48;100.00;97432.22;5077728;28;20206;-67
2024/02/03 01:29:46;;;;;;;2.87;1.60;;;;;;;7.32;100.00;97426.63;5077036;28;20232;-67
2024/02/03 01:32:12;;;;;;;3.67;1.60;;;;;;;7.41;100.00;97425.03;5076744;28;20204;-67
2024/02/03 01:34:39;;;;;;;2.77;1.60;;;;;;;7.28;100.00;97427.03;5077980;28;20200;-67
2024/02/03 01:37:06;;;;;;;3.97;1.70;;;;;;;7.43;100.00;97426.56;5076434;28;20200;-67
2024/02/03 01:39:32;;;;;;;2.53;1.37;;;;;;;7.31;100.00;97424.16;5076081;28;20655;-67
2024/02/03 01:41:59;;;;;;;1.77;1.30;;;;;;;7.35;100.00;97428.97;5077656;28;20204;-67
2024/02/03 01:44:31;;;;;;;2.50;1.67;;;;;;;7.64;100.00;97418.69;5077825;28;20204;-67
2024/02/03 01:46:59;;;;;;;3.73;1.50;;;;;;;7.46;100.00;97415.81;5077978;28;20199;-67
2024/02/03 01:49:26;;;;;;;2.30;1.60;;;;;;;7.29;100.00;97416.41;5076007;28;20234;-67
2024/02/03 01:51:52;;;;;;;3.67;1.70;;;;;;;7.31;100.00;97421.53;5077026;28;20199;-67
2024/02/03 01:54:19;;;;;;;1.93;1.20;;;;;;;7.27;100.00;97417.50;5077827;28;20196;-67
2024/02/03 01:56:49;;;;;;;3.33;1.57;;;;;;;7.43;100.00;97412.59;5076801;28;20203;-67
2024/02/03 01:59:16;;;;;;;2.70;1.50;;;;;;;7.32;100.00;97410.91;5076653;28;20215;-67
2024/02/03 02:01:44;;;;;;;1.63;1.37;;;;;;;7.44;100.00;97409.84;5076753;28;20206;-67
2024/02/03 02:04:11;;;;;;;1.97;1.33;;;;;;;7.38;100.00;97406.91;5076471;28;20462;-67
2024/02/03 02:06:38;;;;;;;2.23;1.20;;;;;;;7.32;100.00;97413.53;5077208;28;20208;-67
2024/02/03 02:09:05;;;;;;;3.70;1.70;;;;;;;7.43;100.00;97416.09;5076133;28;20224;-67
2024/02/03 02:11:31;;;;;;;1.70;1.20;;;;;;;7.37;100.00;97418.41;5075922;28;20218;-67
2024/02/03 02:13:59;;;;;;;2.53;1.43;;;;;;;7.41;100.00;97411.94;5077105;28;20202;-67
2024/02/03 02:16:29;;;;;;;3.57;1.73;;;;;;;7.34;100.00;97414.25;5075959;28;20733;-67
2024/02/03 02:18:56;;;;;;;1.10;1.00;;;;;;;7.42;100.00;97416.19;5075221;28;20196;-67
2024/02/03 02:21:24;;;;;;;4.73;1.53;;;;;;;7.43;100.00;97420.47;5075967;28;20729;-67
2024/02/03 02:23:52;;;;;;;3.50;1.80;;;;;;;7.20;100.00;97411.09;5075063;28;20200;-67
2024/02/03 02:26:19;;;;;;;2.23;1.50;;;;;;;7.20;100.00;97411.09;5076784;28;20196;-67
2024/02/03 02:28:45;;;;;;;3.23;1.50;;;;;;;7.23;100.00;97404.75;5075946;28;20209;-67
2024/02/03 02:31:12;;;;;;;2.03;1.30;;;;;;;7.32;100.00;97408.28;5076523;28;20196;-67
2024/02/03 02:33:38;;;;;;;2.87;1.70;;;;;;;7.23;100.00;97402.97;5075916;28;20207;-67
2024/02/03 02:36:05;;;;;;;4.33;1.70;;;;;;;7.09;100.00;97410.31;5076090;28;20368;-67
2024/02/03 02:38:33;;;;;;;2.60;1.73;;;;;;;7.23;100.00;97394.28;5076039;28;20203;-67
2024/02/03 02:40:59;;;;;;;3.23;1.70;;;;;;;7.03;100.00;97393.31;5076060;28;20220;-67
2024/02/03 02:43:26;;;;;;;3.80;1.90;;;;;;;7.00;100.00;97393.59;5076040;28;20253;-67
2024/02/03 02:45:53;;;;;;;3.93;1.30;;;;;;;6.94;100.00;97382.78;5075470;28;20208;-67
2024/02/03 02:48:19;;;;;;;3.53;1.70;;;;;;;6.90;100.00;97384.81;5075377;28;20541;-67
2024/02/03 02:50:46;;;;;;;2.90;1.60;;;;;;;6.83;100.00;97383.66;5076010;28;20228;-67
2024/02/03 02:53:12;;;;;;;3.10;1.63;;;;;;;6.81;100.00;97385.59;5076094;28;20702;-67
2024/02/03 02:55:40;;;;;;;2.20;1.33;;;;;;;6.90;100.00;97381.38;5075288;28;20199;-67
2024/02/03 02:58:07;;;;;;;3.50;1.53;;;;;;;6.73;100.00;97388.00;5074921;28;20289;-67
2024/02/03 03:00:33;;;;;;;3.33;1.93;;;;;;;6.66;100.00;97392.06;5076508;28;20227;-67
2024/02/03 03:03:00;;;;;;;2.60;1.63;;;;;;;6.67;100.00;97395.53;5075034;28;20210;-67
2024/02/03 03:05:27;;;;;;;2.50;1.70;;;;;;;6.67;100.00;97395.53;5075109;28;20234;-67
2024/02/03 03:07:53;;;;;;;4.10;1.50;;;;;;;6.64;100.00;97397.56;5075912;28;20639;-67
2024/02/03 03:10:20;;;;;;;2.80;1.97;;;;;;;6.59;100.00;97402.34;5075032;28;20238;-67
2024/02/03 03:12:47;;;;;;;3.40;1.80;;;;;;;6.61;100.00;97406.50;5075119;28;20203;-67
2024/02/03 03:15:14;;;;;;;5.17;2.50;;;;;;;6.51;100.00;97410.00;5075397;28;20200;-67
2024/02/03 03:17:41;;;;;;;6.07;1.73;;;;;;;6.61;100.00;97403.88;5075668;28;20204;-67
2024/02/03 03:20:09;;;;;;;4.93;2.00;;;;;;;6.74;100.00;97401.94;5074379;28;20403;-67
2024/02/03 03:22:36;;;;;;;3.93;2.10;;;;;;;6.61;100.00;97396.03;5075305;28;20454;-67
2024/02/03 03:25:03;;;;;;;2.83;1.80;;;;;;;6.60;100.00;97398.78;5075253;28;20475;-67
2024/02/03 03:27:29;;;;;;;5.13;2.47;;;;;;;6.65;100.00;97398.25;5075165;28;20224;-67
2024/02/03 03:29:57;;;;;;;3.10;2.00;;;;;;;6.86;100.00;97393.03;5074640;28;20228;-67
2024/02/03 03:32:24;;;;;;;4.10;2.40;;;;;;;6.69;100.00;97397.06;5075289;28;20227;-67
2024/02/03 03:34:50;;;;;;;3.43;1.87;;;;;;;6.61;100.00;97397.81;5074561;28;20257;-67
2024/02/03 03:37:17;;;;;;;4.27;2.27;;;;;;;6.66;100.00;97399.09;5076122;28;20646;-67
2024/02/03 03:39:45;;;;;;;3.37;1.97;;;;;;;6.74;100.00;97394.06;5074916;28;20331;-67
2024/02/03 03:42:12;;;;;;;3.37;2.07;;;;;;;6.78;100.00;97392.84;5075668;28;20199;-67
2024/02/03 03:44:38;;;;;;;4.30;2.10;;;;;;;6.59;100.00;97395.31;5074866;28;20966;-67
2024/02/03 03:47:06;;;;;;;3.43;2.30;;;;;;;6.74;100.00;97396.69;5075830;28;20206;-67
2024/02/03 03:49:33;;;;;;;9.60;2.80;;;;;;;6.49;100.00;97397.03;5074098;28;20239;-67
2024/02/03 03:52:00;;;;;;;7.50;2.53;;;;;;;6.54;100.00;97394.03;5074790;28;20200;-67
2024/02/03 03:54:27;;;;;;;4.87;2.03;;;;;;;6.46;100.00;97381.56;5075441;28;20235;-67
2024/02/03 03:56:53;;;;;;;5.77;3.00;;;;;;;6.40;100.00;97389.06;5073343;28;20199;-68
2024/02/03 03:59:20;;;;;;;3.90;2.00;;;;;;;6.28;100.00;97390.06;5072870;28;20219;-67
2024/02/03 04:01:48;;;;;;;5.10;2.60;;;;;;;6.49;100.00;97380.47;5074499;28;20210;-67
2024/02/03 04:04:17;;;;;;;6.47;2.77;;;;;;;6.46;100.00;97381.56;5075115;28;20210;-67
2024/02/03 04:06:44;;;;;;;4.87;2.70;;;;;;;6.39;100.00;97380.41;5075641;28;20207;-67
2024/02/03 04:09:10;;;;;;;6.63;3.40;;;;;;;6.12;100.00;97382.63;5074820;28;20232;-67
2024/02/03 04:11:38;;;;;;;5.20;2.33;;;;;;;6.40;100.00;97382.06;5075553;28;20200;-67
2024/02/03 04:14:04;;;;;;;6.03;2.90;;;;;;;6.28;100.00;97382.22;5074929;28;20677;-67
2024/02/03 04:16:31;;;;;;;4.23;2.07;;;;;;;6.28;100.00;97388.28;5074739;28;20199;-67
2024/02/03 04:18:57;;;;;;;6.63;3.47;;;;;;;6.21;100.00;97392.34;5074529;28;20200;-67
2024/02/03 04:21:28;;;;;;;4.80;2.80;;;;;;;6.45;100.00;97392.97;5074934;28;20690;-67
2024/02/03 04:23:54;;;;;;;4.97;2.80;;;;;;;6.15;100.00;97389.41;5075067;28;20231;-67
2024/02/03 04:26:21;;;;;;;4.93;2.57;;;;;;;6.34;100.00;97397.41;5074950;28;20342;-67
2024/02/03 04:28:47;;;;;;;4.93;2.70;;;;;;;6.27;100.00;97391.84;5073995;28;20203;-67
2024/02/03 04:31:14;;;;;;;5.17;2.80;;;;;;;6.26;100.00;97390.19;5074777;28;20724;-67
2024/02/03 04:33:40;;;;;;;4.53;2.13;;;;;;;6.18;100.00;97381.28;5075084;28;20214;-67
2024/02/03 04:36:07;;;;;;;7.67;2.37;;;;;;;6.13;100.00;97386.88;5074668;28;20200;-67
2024/02/03 04:38:35;;;;;;;5.37;2.57;;;;;;;6.19;100.00;97383.78;5074036;28;20751;-67
2024/02/03 04:41:02;;;;;;;4.40;2.40;;;;;;;6.12;100.00;97385.25;5074572;28;20212;-67
2024/02/03 04:43:28;;;;;;;3.80;2.30;;;;;;;6.12;100.00;97381.78;5074485;28;20204;-67
2024/02/03 04:45:55;;;;;;;5.07;2.10;;;;;;;6.04;100.00;97390.22;5074234;28;20204;-67
2024/02/03 04:48:21;;;;;;;5.33;2.30;;;;;;;6.09;100.00;97385.47;5077356;28;20203;-67
2024/02/03 04:50:47;;;;;;;4.57;2.33;;;;;;;6.03;100.00;97386.91;5077909;28;20601;-67
2024/02/03 04:53:14;;;;;;;5.00;2.43;;;;;;;6.06;100.00;97388.34;5078082;28;20195;-67
2024/02/03 04:55:42;;;;;;;4.07;2.47;;;;;;;6.28;100.00;97380.44;5078107;28;20204;-67
2024/02/03 04:58:08;;;;;;;4.60;2.60;;;;;;;6.14;100.00;97377.25;5077849;28;20553;-67
2024/02/03 05:00:35;;;;;;;5.83;2.33;;;;;;;6.17;100.00;97383.09;5077387;28;20226;-67
2024/02/03 05:03:01;;;;;;;6.43;2.33;;;;;;;5.99;100.00;97388.13;5078137;28;21302;-67
2024/02/03 05:05:28;;;;;;;5.43;2.90;;;;;;;6.12;100.00;97387.00;5078492;28;20200;-67
2024/02/03 05:07:54;;;;;;;4.27;2.17;;;;;;;6.09;100.00;97376.78;5076829;28;20218;-67
2024/02/03 05:10:21;;;;;;;3.67;2.30;;;;;;;6.11;100.00;97378.34;5077874;28;20223;-67
2024/02/03 05:12:49;;;;;;;6.83;3.00;;;;;;;6.12;100.00;97381.78;5078202;28;20214;-67
2024/02/03 05:15:18;;;;;;;4.20;2.30;;;;;;;6.19;100.00;97383.78;5077318;28;20200;-67
2024/02/03 05:17:45;;;;;;;5.27;2.33;;;;;;;6.05;100.00;97386.66;5077532;28;20237;-67
2024/02/03 05:20:12;;;;;;;4.40;2.00;;;;;;;6.09;100.00;97389.88;5077518;28;20603;-67
2024/02/03 05:22:38;;;;;;;5.23;2.27;;;;;;;6.01;100.00;97394.03;5077433;28;20212;-67
2024/02/03 05:25:06;;;;;;;3.40;2.43;;;;;;;6.20;100.00;97395.91;5076455;28;20206;-67
2024/02/03 05:27:32;;;;;;;5.47;2.50;;;;;;;6.10;100.00;97391.53;5077889;28;20620;-67
2024/02/03 05:30:00;;;;;;;4.70;2.57;;;;;;;6.18;100.00;97391.75;5077400;28;20988;-67
2024/02/03 05:32:27;;;;;;;3.90;2.07;;;;;;;6.05;100.00;97402.34;5076972;28;20200;-66
2024/02/03 05:34:53;;;;;;;6.23;2.70;;;;;;;6.06;100.00;97403.22;5077673;28;20442;-67
2024/02/03 05:37:20;;;;;;;4.60;2.20;;;;;;;6.07;100.00;97403.09;5077822;28;20733;-67
2024/02/03 05:39:46;;;;;;;4.73;2.23;;;;;;;6.05;100.00;97396.31;5076336;28;21019;-67
2024/02/03 05:42:13;;;;;;;4.13;2.17;;;;;;;6.03;100.00;97413.09;5076931;28;20196;-67
2024/02/03 05:44:39;;;;;;;4.37;2.33;;;;;;;5.94;100.00;97408.56;5077359;28;20208;-67
2024/02/03 05:47:07;;;;;;;4.53;2.50;;;;;;;6.14;100.00;97404.25;5076822;28;20203;-67
2024/02/03 05:49:34;;;;;;;7.37;3.03;;;;;;;6.05;100.00;97407.59;5076257;28;20231;-67
2024/02/03 05:52:01;;;;;;;3.97;2.20;;;;;;;6.07;100.00;97416.16;5077080;28;20227;-67
2024/02/03 05:54:28;;;;;;;6.10;2.43;;;;;;;6.10;100.00;97407.25;5076971;28;20203;-67
2024/02/03 05:56:54;;;;;;;4.40;2.33;;;;;;;6.19;100.00;97416.97;5076364;28;20690;-67
2024/02/03 05:59:21;;;;;;;7.13;2.60;;;;;;;6.16;100.00;97412.81;5076449;28;20713;-67
2024/02/03 06:01:47;;;;;;;5.87;3.13;;;;;;;6.02;100.00;97414.03;5077505;28;20203;-67
2024/02/03 06:04:15;;;;;;;5.87;2.50;;;;;;;5.97;100.00;97424.03;5076745;28;20196;-67
2024/02/03 06:06:42;;;;;;;4.23;2.17;;;;;;;5.83;100.00;97419.03;5076884;28;20204;-67
2024/02/03 06:09:08;;;;;;;7.17;2.67;;;;;;;5.77;100.00;97416.91;5075715;28;20382;-67
2024/02/03 06:11:35;;;;;;;7.40;2.33;;;;;;;5.83;100.00;97421.66;5076134;28;20228;-67
2024/02/03 06:14:01;;;;;;;4.87;2.90;;;;;;;5.82;100.00;97425.25;5076632;28;20208;-67
2024/02/03 06:16:28;;;;;;;5.57;2.70;;;;;;;5.72;100.00;97425.06;5076686;28;20200;-67
2024/02/03 06:18:54;;;;;;;5.10;2.57;;;;;;;5.58;100.00;97437.56;5075393;28;20650;-67
2024/02/03 06:21:22;;;;;;;5.27;2.93;;;;;;;5.87;100.00;97430.91;5076977;28;20476;-67
2024/02/03 06:23:49;;;;;;;5.50;2.77;;;;;;;5.77;100.00;97435.22;5077025;28;20208;-67
2024/02/03 06:26:15;;;;;;;6.13;3.03;;;;;;;5.81;100.00;97437.47;5076900;28;20203;-67
2024/02/03 06:28:42;;;;;;;6.47;2.60;;;;;;;5.78;100.00;97439.47;5075907;28;20204;-67
2024/02/03 06:31:08;;;;;;;5.17;2.43;;;;;;;5.84;100.00;97433.78;5077335;28;20224;-67
2024/02/03 06:33:35;;;;;;;4.70;2.70;;;;;;;5.81;100.00;97428.81;5076119;28;20350;-68
2024/02/03 06:36:01;;;;;;;5.03;2.83;;;;;;;5.79;100.00;97428.06;5076319;28;20203;-67
2024/02/03 06:38:29;;;;;;;7.27;2.60;;;;;;;5.89;100.00;97429.84;5076723;28;20199;-67
2024/02/03 06:40:56;;;;;;;7.23;3.33;;;;;;;5.78;100.00;97429.88;5076671;28;20220;-67
2024/02/03 06:43:22;;;;;;;5.73;2.90;;;;;;;5.69;100.00;97429.69;5076350;28;20203;-67
2024/02/03 06:45:49;;;;;;;7.17;3.47;;;;;;;5.70;100.00;97426.13;5076122;28;20218;-67
2024/02/03 06:48:16;;;;;;;6.20;3.30;;;;;;;5.62;100.00;97424.09;5075950;28;20201;-67
2024/02/03 06:50:42;;;;;;;8.37;3.60;;;;;;;5.66;100.00;97429.94;5076212;28;20231;-68
2024/02/03 06:53:10;;;;;;;7.63;4.17;;;;;;;5.63;100.00;97427.56;5075632;28;20195;-67
2024/02/03 06:55:37;;;;;;;9.17;4.10;;;;;;;5.78;100.00;97429.00;5076353;28;20203;-67
2024/02/03 06:58:04;;;;;;;13.27;4.43;;;;;;;5.60;100.00;97430.41;5075665;28;20937;-67
2024/02/03 07:00:31;;;;;;;45.43;15.90;;;;;;;5.55;100.00;97436.00;5076106;28;20211;-67
2024/02/03 07:02:57;;;;;;;9.87;4.07;;;;;;;5.45;100.00;97436.84;5076215;28;20245;-67
2024/02/03 07:05:24;;;;;;;6.83;3.40;;;;;;;5.57;100.00;97439.31;5075852;28;20206;-67
2024/02/03 07:07:50;;;;;;;5.20;2.67;;;;;;;5.62;100.00;97444.22;5076049;28;20212;-67
2024/02/03 07:10:17;;;;;;;4.43;2.67;;;;;;;5.49;100.00;97444.31;5074246;28;20228;-67
2024/02/03 07:12:45;;;;;;;6.93;3.47;;;;;;;5.58;100.00;97442.78;5074930;28;20505;-67
2024/02/03 07:15:11;;;;;;;5.10;2.87;;;;;;;5.48;100.00;97433.97;5074485;28;20203;-67
2024/02/03 07:17:38;;;;;;;6.37;2.77;;;;;;;5.61;100.00;97443.38;5075838;28;20222;-67
2024/02/03 07:20:06;;;;;;;6.77;3.10;;;;;;;5.69;100.00;97440.16;5074908;28;20271;-67
2024/02/03 07:22:32;;;;;;;6.40;2.83;;;;;;;5.65;100.00;97443.97;5075868;28;20199;-67
2024/02/03 07:24:59;;;;;;;4.47;2.53;;;;;;;5.75;100.00;97450.16;5075599;28;21316;-67
2024/02/03 07:27:25;;;;;;;7.53;3.40;;;;;;;5.71;100.00;97446.13;5075844;28;20196;-67
2024/02/03 07:29:53;;;;;;;8.97;3.80;;;;;;;5.98;100.00;97444.81;5075015;28;20548;-67
2024/02/03 07:32:20;;;;;;;7.43;3.20;;;;;;;5.71;100.00;97446.94;5076058;28;20228;-67
2024/02/03 07:34:46;;;;;;;8.00;3.80;;;;;;;5.72;100.00;97455.63;5076244;28;20208;-67
2024/02/03 07:37:13;;;;;;;8.23;3.10;;;;;;;5.90;100.00;97449.00;5075824;28;20202;-67
2024/02/03 07:39:40;;;;;;;6.70;3.33;;;;;;;5.80;100.00;97453.28;5075361;28;20226;-66
2024/02/03 07:42:08;;;;;;;5.10;2.67;;;;;;;5.96;100.00;97448.50;5076569;28;20633;-67
2024/02/03 07:44:36;;;;;;;7.37;3.27;;;;;;;5.98;100.00;97452.66;5075303;28;20204;-67
2024/02/03 07:47:04;;;;;;;6.87;3.70;;;;;;;6.17;100.00;97448.50;5075577;28;20211;-67
2024/02/03 07:49:31;;;;;;;7.23;2.93;;;;;;;5.98;100.00;97446.63;5076161;28;20222;-67
2024/02/03 07:51:57;;;;;;;6.40;3.13;;;;;;;6.08;100.00;97446.63;5076787;28;20228;-67
2024/02/03 07:54:24;;;;;;;6.87;3.30;;;;;;;6.07;100.00;97444.94;5075772;28;20232;-67
2024/02/03 07:56:50;;;;;;;7.00;3.43;;;;;;;6.15;100.00;97447.78;5076374;28;20234;-67
2024/02/03 07:59:17;;;;;;;7.10;3.27;;;;;;;6.15;100.00;97447.78;5075470;28;20234;-67
2024/02/03 08:01:43;;;;;;;12.40;4.50;;;;;;;6.24;100.00;97438.38;5076225;28;20203;-67
2024/02/03 08:04:11;;;;;;;12.90;5.93;;;;;;;6.51;100.00;97434.38;5076556;28;20203;-67
2024/02/03 08:06:37;;;;;;;12.70;4.87;;;;;;;6.39;100.00;97440.63;5076361;28;20212;-67
2024/02/03 08:09:04;;;;;;;11.30;4.67;;;;;;;6.44;100.00;97435.00;5075680;28;20342;-67
2024/02/03 08:11:31;;;;;;;9.20;3.80;;;;;;;6.50;100.00;97430.09;5075434;28;20219;-67
2024/02/03 08:13:57;;;;;;;9.17;4.23;;;;;;;6.64;100.00;97436.84;5076585;28;20200;-67
2024/02/03 08:16:24;;;;;;;11.10;3.57;;;;;;;6.61;100.00;97437.94;5076065;28;20621;-67
2024/02/03 08:18:50;;;;;;;9.40;4.20;;;;;;;6.64;100.00;97429.81;5075062;28;20207;-66
2024/02/03 08:21:18;;;;;;;9.23;4.27;;;;;;;6.98;100.00;97426.13;5077487;28;20195;-67
2024/02/03 08:23:44;;;;;;;6.23;3.53;;;;;;;7.04;100.00;97433.44;5080418;28;20200;-67
2024/02/03 08:26:12;;;;;;;8.77;3.87;;;;;;;7.07;100.00;97433.22;5079638;28;20212;-67
2024/02/03 08:28:38;;;;;;;8.47;3.77;;;;;;;7.22;100.00;97429.31;5078975;28;21073;-67
2024/02/03 08:31:05;;;;;;;9.40;3.67;;;;;;;7.34;100.00;97429.13;5079673;28;20231;-67
2024/02/03 08:33:32;;;;;;;9.60;4.17;;;;;;;7.44;100.00;97433.47;5079817;28;20212;-67
2024/02/03 08:35:58;;;;;;;10.03;4.73;;;;;;;7.54;100.00;97426.47;5079773;28;20260;-67
2024/02/03 08:38:26;;;;;;;8.57;4.10;;;;;;;7.60;100.00;97431.22;5079990;28;20196;-66
2024/02/03 08:40:52;;;;;;;6.27;3.27;;;;;;;7.51;100.00;97416.25;5079574;28;20219;-67
2024/02/03 08:43:19;;;;;;;5.73;2.50;;;;;;;7.52;100.00;97425.78;5079760;28;20215;-67
2024/02/03 08:45:47;;;;;;;8.33;3.50;;;;;;;7.38;100.00;97423.50;5080276;28;20203;-67
2024/02/03 08:48:13;;;;;;;7.23;3.23;;;;;;;7.52;100.00;97422.31;5078630;28;20204;-67
2024/02/03 08:50:40;;;;;;;6.00;3.33;;;;;;;7.47;100.00;97421.88;5079301;28;20227;-67
2024/02/03 08:53:07;;;;;;;8.00;3.33;;;;;;;7.61;100.00;97422.41;5079924;28;20204;-67
2024/02/03 08:55:35;;;;;;;6.37;2.97;;;;;;;7.64;100.00;97422.13;5079507;28;20211;-67
2024/02/03 08:58:02;;;;;;;9.83;4.30;;;;;;;7.85;100.00;97415.03;5078660;28;20204;-67
2024/02/03 09:00:28;;;;;;;7.53;3.03;;;;;;;7.67;100.00;97413.97;5078846;28;20612;-67
2024/02/03 09:02:55;;;;;;;7.27;3.17;;;;;;;7.62;100.00;97413.53;5079533;28;20200;-67
2024/02/03 09:05:21;;;;;;;6.93;3.13;;;;;;;7.82;100.00;97417.09;5079528;28;20196;-67
2024/02/03 09:07:49;;;;;;;7.13;3.50;;;;;;;7.97;100.00;97419.25;5078772;28;20208;-67
2024/02/03 09:10:16;;;;;;;13.10;3.40;;;;;;;7.75;100.00;97424.66;5078011;28;20227;-67
2024/02/03 09:12:43;;;;;;;7.00;3.33;;;;;;;7.92;100.00;97426.66;5079110;28;20223;-67
2024/02/03 09:15:10;;;;;;;7.57;3.57;;;;;;;7.97;100.00;97435.81;5079326;28;20211;-67
2024/02/03 09:17:37;;;;;;;6.30;2.70;;;;;;;8.15;100.00;97438.66;5078825;28;20641;-67
2024/02/03 09:20:04;;;;;;;9.20;3.50;;;;;;;8.21;100.00;97438.97;5078145;28;20235;-67
2024/02/03 09:22:30;;;;;;;8.30;3.33;;;;;;;8.09;100.00;97444.41;5078914;28;20283;-67
2024/02/03 09:24:57;;;;;;;9.03;4.00;;;;;;;8.15;100.00;97450.00;5078891;28;20208;-67
2024/02/03 09:27:23;;;;;;;7.20;3.77;;;;;;;8.13;100.00;97451.06;5078805;28;20211;-67
2024/02/03 09:29:51;;;;;;;9.47;3.70;;;;;;;8.41;100.00;97456.41;5077883;28;20731;-67
2024/02/03 09:32:18;;;;;;;7.90;3.63;;;;;;;8.07;100.00;97462.94;5077881;28;20215;-67
2024/02/03 09:34:48;;;;;;;6.37;3.23;;;;;;;8.29;100.00;97456.69;5078931;28;20211;-69
2024/02/03 09:37:15;;;;;;;7.70;3.63;;;;;;;8.13;100.00;97461.56;5078266;28;20208;-67
2024/02/03 09:39:42;;;;;;;9.00;3.87;;;;;;;8.24;100.00;97466.75;5077487;28;20219;-67
2024/02/03 09:42:09;;;;;;;9.37;3.87;;;;;;;8.53;100.00;97455.38;5078649;28;20202;-67
2024/02/03 09:44:35;;;;;;;11.87;4.13;;;;;;;8.72;100.00;97460.66;5078497;28;20278;-66
2024/02/03 09:47:04;;;;;;;9.87;4.20;;;;;;;8.93;100.00;97456.91;5078049;28;20681;-68
2024/02/03 09:49:30;;;;;;;8.30;4.07;;;;;;;9.01;100.00;97466.75;5077401;28;20229;-66
2024/02/03 09:51:58;;;;;;;8.03;3.80;;;;;;;8.99;100.00;97463.44;5078239;28;20582;-67
2024/02/03 09:54:26;;;;;;;7.60;3.63;;;;;;;9.11;100.00;97474.53;5078532;28;20196;-67
2024/02/03 09:56:53;;;;;;;7.97;3.30;;;;;;;8.86;100.00;97479.47;5078227;28;20662;-68
2024/02/03 09:59:20;;;;;;;9.23;3.40;;;;;;;8.80;100.00;97485.28;5076851;28;20641;-68
2024/02/03 10:01:46;;;;;;;7.77;3.37;;;;;;;8.85;100.00;97484.88;5078319;28;20200;-68
2024/02/03 10:04:14;;;;;;;3.13;2.40;;;;;;;8.95;100.00;97473.41;5078203;28;20227;-67
2024/02/03 10:06:44;;;;;;;6.63;3.37;;;;;;;8.89;100.00;97479.19;5077947;28;20578;-67
2024/02/03 10:09:11;;;;;;;11.90;4.70;;;;;;;9.03;100.00;97470.91;5076777;28;20342;-67
2024/02/03 10:11:39;;;;;;;12.93;4.83;;;;;;;9.22;100.00;97474.38;5076893;28;20219;-68
2024/02/03 10:14:06;;;;;;;7.70;3.07;;;;;;;9.15;100.00;97465.38;5078014;28;20208;-68
2024/02/03 10:16:43;;;;;;;11.97;4.87;;;;;;;9.58;100.00;97462.28;5076612;28;20200;-67
2024/02/03 10:19:09;;;;;;;9.10;4.33;;;;;;;9.39;100.00;97465.75;5076308;28;20625;-68
2024/02/03 10:21:37;;;;;;;8.10;3.53;;;;;;;9.71;100.00;97458.38;5077196;28;20192;-68
2024/02/03 10:24:04;;;;;;;7.87;4.20;;;;;;;9.77;100.00;97461.25;5077713;28;20200;-68
2024/02/03 10:26:31;;;;;;;15.40;3.70;;;;;;;9.77;100.00;97463.88;5077694;28;20206;-67
2024/02/03 10:28:57;;;;;;;5.73;3.07;;;;;;;9.74;100.00;97458.91;5076917;28;20204;-68
2024/02/03 10:31:24;;;;;;;10.93;3.83;;;;;;;9.81;100.00;97460.03;5076177;28;20211;-68
2024/02/03 10:33:51;;;;;;;8.33;4.10;;;;;;;9.81;100.00;97457.41;5076323;28;20879;-68
2024/02/03 10:36:17;;;;;;;6.97;2.90;;;;;;;9.79;100.00;97448.81;5076287;28;21511;-68
2024/02/03 10:38:45;;;;;;;12.10;4.03;;;;;;;10.18;100.00;97447.72;5076549;28;20199;-68
2024/02/03 10:41:12;;;;;;;7.63;3.57;;;;;;;9.98;100.00;97456.69;5075835;28;20211;-67
2024/02/03 10:43:39;;;;;;;7.53;3.57;;;;;;;9.99;100.00;97446.97;5077190;28;20206;-67
2024/02/03 10:46:06;;;;;;;6.30;3.10;;;;;;;10.25;100.00;97440.06;5076868;28;20207;-67
2024/02/03 10:48:34;;;;;;;6.30;3.13;;;;;;;10.27;100.00;97440.75;5075550;28;20204;-67
2024/02/03 10:51:04;;;;;;;7.27;3.97;;;;;;;10.39;100.00;97435.97;5075965;28;20238;-67
2024/02/03 10:53:34;;;;;;;7.27;3.17;;;;;;;10.43;100.00;97441.78;5076464;28;20290;-66
2024/02/03 10:56:06;;;;;;;7.43;3.37;;;;;;;10.47;100.00;97422.06;5076373;28;20794;-66
2024/02/03 10:58:34;;;;;;;10.40;4.60;;;;;;;10.52;100.00;97425.06;5075840;28;20191;-67
2024/02/03 11:01:11;;;;;;;6.83;3.40;;;;;;;10.59;100.00;97412.94;5076113;28;20598;-66
2024/02/03 11:03:37;;;;;;;5.67;2.60;;;;;;;10.39;100.00;97406.16;5076609;28;20207;-67
2024/02/03 11:06:05;;;;;;;9.47;3.60;;;;;;;10.62;100.00;97395.03;5076387;28;20203;-68
2024/02/03 11:08:32;;;;;;;7.67;3.13;;;;;;;10.44;100.00;97398.66;5076092;28;20211;-66
2024/02/03 11:10:59;;;;;;;3.47;2.37;;;;;;;10.49;100.00;97393.75;5076408;28;20255;-66
2024/02/03 11:13:30;;;;;;;5.50;2.90;;;;;;;10.84;100.00;97388.50;5076660;28;20220;-67
2024/02/03 11:15:57;;;;;;;3.93;2.90;;;;;;;10.53;100.00;97392.47;5078102;28;20577;-66
2024/02/03 11:18:24;;;;;;;6.50;2.90;;;;;;;10.57;100.00;97381.47;5076132;28;20202;-67
2024/02/03 11:20:51;;;;;;;11.00;3.27;;;;;;;10.68;100.00;97381.28;5076130;28;20219;-68
2024/02/03 11:23:18;;;;;;;9.33;3.40;;;;;;;10.59;100.00;97379.53;5077407;28;20206;-68
2024/02/03 11:25:45;;;;;;;5.67;2.97;;;;;;;10.59;100.00;97371.63;5076751;28;20570;-67
2024/02/03 11:28:12;;;;;;;6.57;2.87;;;;;;;10.84;100.00;97373.50;5075912;28;20200;-67
2024/02/03 11:30:40;;;;;;;8.23;3.70;;;;;;;11.16;100.00;97368.50;5076622;28;20220;-68